This is the latest recevied weather packets stored in our database for station/object WX7FGZ-3. If no packets are shown the sender has not sent any weather packets the latest 10 day(s).
| Time | Temp. | Humidity | Pressure | Rain* | Wind** | Luminosity | Snow |
|---|---|---|---|---|---|---|---|
| 1777816971 | 11.11° C | 48% | 1015.7 hPa | 0 mm | - | - | - |
| 1777816671 | 10.56° C | 48% | 1015.7 hPa | 0 mm | - | - | - |
| 1777816372 | 10° C | 50% | 1015.8 hPa | 0 mm | - | - | - |
| 1777811653 | 4.44° C | 62% | 1015.7 hPa | 0 mm | - | - | - |
| 1777811570 | 4.44° C | 62% | 1015.7 hPa | 0 mm | - | - | - |
| 1777811266 | 4.44° C | 62% | 1015.7 hPa | 0 mm | - | - | - |
| 1777810966 | 4.44° C | 62% | 1015.6 hPa | 0 mm | - | - | - |
| 1777810783 | 15° C | 28% | 1015.1 hPa | 0 mm | - | - | - |
| 1777810757 | 15° C | 29% | 1015 hPa | 0 mm | - | - | - |
| 1777810743 | 15° C | 28% | 1015.1 hPa | 0 mm | - | - | - |
| 1777810666 | 4.44° C | 61% | 1015.7 hPa | 0 mm | - | - | - |
| 1777810365 | 4.44° C | 61% | 1015.6 hPa | 0 mm | - | - | - |
| 1777810065 | 3.89° C | 63% | 1015.7 hPa | 0 mm | - | - | - |
| 1777809465 | 3.33° C | 63% | 1015.9 hPa | 0 mm | - | - | - |
| 1777808863 | 3.89° C | 61% | 1016.1 hPa | 0 mm | - | - | - |
| 1777808564 | 3.89° C | 63% | 1016.1 hPa | 0 mm | - | - | - |
| 1777807963 | 3.89° C | 64% | 1016 hPa | 0 mm | - | - | - |
| 1777807362 | 3.89° C | 62% | 1016.1 hPa | 0 mm | - | - | - |
| 1777807062 | 3.89° C | 63% | 1016.2 hPa | 0 mm | - | - | - |
| 1777806461 | 4.44° C | 65% | 1016.1 hPa | 0 mm | - | - | - |
| 1777806161 | 4.44° C | 63% | 1016.2 hPa | 0 mm | - | - | - |
| 1777805561 | 5° C | 62% | 1016.4 hPa | 0 mm | - | - | - |
| 1777804960 | 5.56° C | 61% | 1016.5 hPa | 0 mm | - | - | - |
| 1777804359 | 6.11° C | 58% | 1016.5 hPa | 0 mm | - | - | - |
| 1777803759 | 6.67° C | 56% | 1016.5 hPa | 0 mm | - | - | - |
* Rain latest hour (hover to see other rain measurements)
** Current wind speed in m/s (hover to see current wind gust speed)